sensor_id;sensor_type;location;lat;lon;timestamp;temperature;humidity
68011;DHT22;54794;48.348;7.878;2022-11-21T00:01:25;10.10;70.00
68011;DHT22;54794;48.348;7.878;2022-11-21T00:03:53;10.10;70.10
68011;DHT22;54794;48.348;7.878;2022-11-21T00:06:20;10.10;70.00
68011;DHT22;54794;48.348;7.878;2022-11-21T00:08:49;10.10;70.00
68011;DHT22;54794;48.348;7.878;2022-11-21T00:11:16;10.20;70.60
68011;DHT22;54794;48.348;7.878;2022-11-21T00:13:43;10.10;70.50
68011;DHT22;54794;48.348;7.878;2022-11-21T00:16:12;10.10;70.00
68011;DHT22;54794;48.348;7.878;2022-11-21T00:18:41;10.10;70.00
68011;DHT22;54794;48.348;7.878;2022-11-21T00:21:14;10.20;70.10
68011;DHT22;54794;48.348;7.878;2022-11-21T00:23:44;10.20;70.10
68011;DHT22;54794;48.348;7.878;2022-11-21T00:26:13;10.20;70.00
68011;DHT22;54794;48.348;7.878;2022-11-21T00:28:41;10.20;70.00
68011;DHT22;54794;48.348;7.878;2022-11-21T00:31:16;10.20;70.00
68011;DHT22;54794;48.348;7.878;2022-11-21T00:33:44;10.20;70.00
68011;DHT22;54794;48.348;7.878;2022-11-21T00:36:11;10.30;70.10
68011;DHT22;54794;48.348;7.878;2022-11-21T00:38:38;10.20;70.00
68011;DHT22;54794;48.348;7.878;2022-11-21T00:41:05;10.30;70.00
68011;DHT22;54794;48.348;7.878;2022-11-21T00:43:32;10.30;70.00
68011;DHT22;54794;48.348;7.878;2022-11-21T00:45:59;10.20;70.00
68011;DHT22;54794;48.348;7.878;2022-11-21T00:48:29;10.30;70.10
68011;DHT22;54794;48.348;7.878;2022-11-21T00:50:57;10.30;70.10
68011;DHT22;54794;48.348;7.878;2022-11-21T00:53:26;10.20;70.00
68011;DHT22;54794;48.348;7.878;2022-11-21T00:55:53;10.30;70.10
68011;DHT22;54794;48.348;7.878;2022-11-21T00:58:21;10.30;70.10
68011;DHT22;54794;48.348;7.878;2022-11-21T01:00:47;10.30;70.20
68011;DHT22;54794;48.348;7.878;2022-11-21T01:03:15;10.30;70.20
68011;DHT22;54794;48.348;7.878;2022-11-21T01:05:42;10.30;70.20
68011;DHT22;54794;48.348;7.878;2022-11-21T01:08:09;10.30;70.20
68011;DHT22;54794;48.348;7.878;2022-11-21T01:10:36;10.30;70.20
68011;DHT22;54794;48.348;7.878;2022-11-21T01:13:03;10.30;70.20
68011;DHT22;54794;48.348;7.878;2022-11-21T01:15:30;10.30;70.30
68011;DHT22;54794;48.348;7.878;2022-11-21T01:17:57;10.40;70.30
68011;DHT22;54794;48.348;7.878;2022-11-21T01:20:24;10.30;70.30
68011;DHT22;54794;48.348;7.878;2022-11-21T01:22:51;10.30;70.20
68011;DHT22;54794;48.348;7.878;2022-11-21T01:25:18;10.30;70.20
68011;DHT22;54794;48.348;7.878;2022-11-21T01:27:45;10.30;70.20
68011;DHT22;54794;48.348;7.878;2022-11-21T01:30:12;10.20;70.10
68011;DHT22;54794;48.348;7.878;2022-11-21T01:32:40;10.30;70.10
68011;DHT22;54794;48.348;7.878;2022-11-21T01:35:07;10.30;70.10
68011;DHT22;54794;48.348;7.878;2022-11-21T01:37:34;10.30;70.20
68011;DHT22;54794;48.348;7.878;2022-11-21T01:40:01;10.30;70.20
68011;DHT22;54794;48.348;7.878;2022-11-21T01:42:28;10.20;70.20
68011;DHT22;54794;48.348;7.878;2022-11-21T01:44:55;10.20;70.30
68011;DHT22;54794;48.348;7.878;2022-11-21T01:47:21;10.30;70.40
68011;DHT22;54794;48.348;7.878;2022-11-21T01:49:50;10.30;70.40
68011;DHT22;54794;48.348;7.878;2022-11-21T01:52:26;10.30;70.50
68011;DHT22;54794;48.348;7.878;2022-11-21T01:55:03;10.30;70.60
68011;DHT22;54794;48.348;7.878;2022-11-21T01:57:38;10.30;70.60
68011;DHT22;54794;48.348;7.878;2022-11-21T02:00:14;10.30;70.60
68011;DHT22;54794;48.348;7.878;2022-11-21T02:02:52;10.30;70.40
68011;DHT22;54794;48.348;7.878;2022-11-21T02:05:26;10.30;70.50
68011;DHT22;54794;48.348;7.878;2022-11-21T02:08:03;10.30;70.40
68011;DHT22;54794;48.348;7.878;2022-11-21T02:10:35;10.30;70.60
68011;DHT22;54794;48.348;7.878;2022-11-21T02:13:05;10.30;70.60
68011;DHT22;54794;48.348;7.878;2022-11-21T02:15:32;10.40;70.60
68011;DHT22;54794;48.348;7.878;2022-11-21T02:17:59;10.30;70.60
68011;DHT22;54794;48.348;7.878;2022-11-21T02:20:27;10.40;70.70
68011;DHT22;54794;48.348;7.878;2022-11-21T02:25:42;10.40;70.90
68011;DHT22;54794;48.348;7.878;2022-11-21T02:28:14;10.40;70.80
68011;DHT22;54794;48.348;7.878;2022-11-21T02:30:42;10.40;70.80
68011;DHT22;54794;48.348;7.878;2022-11-21T02:33:10;10.40;70.60
68011;DHT22;54794;48.348;7.878;2022-11-21T02:35:39;10.40;70.60
68011;DHT22;54794;48.348;7.878;2022-11-21T02:38:16;10.40;70.70
68011;DHT22;54794;48.348;7.878;2022-11-21T02:40:52;10.40;70.80
68011;DHT22;54794;48.348;7.878;2022-11-21T02:43:28;10.40;70.80
68011;DHT22;54794;48.348;7.878;2022-11-21T02:45:58;10.40;70.80
68011;DHT22;54794;48.348;7.878;2022-11-21T02:48:25;10.50;70.80
68011;DHT22;54794;48.348;7.878;2022-11-21T02:50:52;10.50;70.80
68011;DHT22;54794;48.348;7.878;2022-11-21T02:53:19;10.40;70.80
68011;DHT22;54794;48.348;7.878;2022-11-21T02:55:46;10.40;70.70
68011;DHT22;54794;48.348;7.878;2022-11-21T02:58:13;10.40;70.70
68011;DHT22;54794;48.348;7.878;2022-11-21T03:00:41;10.50;70.80
68011;DHT22;54794;48.348;7.878;2022-11-21T03:03:09;10.50;70.80
68011;DHT22;54794;48.348;7.878;2022-11-21T03:05:37;10.40;70.80
68011;DHT22;54794;48.348;7.878;2022-11-21T03:08:05;10.40;70.80
68011;DHT22;54794;48.348;7.878;2022-11-21T03:10:32;10.40;70.80
68011;DHT22;54794;48.348;7.878;2022-11-21T03:12:59;10.40;70.90
68011;DHT22;54794;48.348;7.878;2022-11-21T03:15:32;10.40;70.70
68011;DHT22;54794;48.348;7.878;2022-11-21T03:18:00;10.50;71.00
68011;DHT22;54794;48.348;7.878;2022-11-21T03:20:30;10.40;71.00
68011;DHT22;54794;48.348;7.878;2022-11-21T03:22:58;10.40;70.90
68011;DHT22;54794;48.348;7.878;2022-11-21T03:25:25;10.40;70.90
68011;DHT22;54794;48.348;7.878;2022-11-21T03:27:53;10.50;71.00
68011;DHT22;54794;48.348;7.878;2022-11-21T03:30:23;10.40;71.00
68011;DHT22;54794;48.348;7.878;2022-11-21T03:32:54;10.40;71.00
68011;DHT22;54794;48.348;7.878;2022-11-21T03:35:22;10.40;71.00
68011;DHT22;54794;48.348;7.878;2022-11-21T03:37:50;10.40;71.00
68011;DHT22;54794;48.348;7.878;2022-11-21T03:40:17;10.40;71.00
68011;DHT22;54794;48.348;7.878;2022-11-21T03:42:43;10.40;70.90
68011;DHT22;54794;48.348;7.878;2022-11-21T03:45:10;10.40;70.90
68011;DHT22;54794;48.348;7.878;2022-11-21T03:47:37;10.40;70.90
68011;DHT22;54794;48.348;7.878;2022-11-21T03:50:05;10.50;71.00
68011;DHT22;54794;48.348;7.878;2022-11-21T03:52:32;10.40;70.90
68011;DHT22;54794;48.348;7.878;2022-11-21T03:54:59;10.40;70.90
68011;DHT22;54794;48.348;7.878;2022-11-21T03:57:26;10.40;70.90
68011;DHT22;54794;48.348;7.878;2022-11-21T03:59:52;10.40;70.90
68011;DHT22;54794;48.348;7.878;2022-11-21T04:02:19;10.40;70.90
68011;DHT22;54794;48.348;7.878;2022-11-21T04:04:46;10.50;70.90
68011;DHT22;54794;48.348;7.878;2022-11-21T04:07:13;10.40;70.90
68011;DHT22;54794;48.348;7.878;2022-11-21T04:09:40;10.40;70.90
68011;DHT22;54794;48.348;7.878;2022-11-21T04:12:07;10.40;70.90
68011;DHT22;54794;48.348;7.878;2022-11-21T04:14:34;10.40;70.90
68011;DHT22;54794;48.348;7.878;2022-11-21T04:17:00;10.30;70.90
68011;DHT22;54794;48.348;7.878;2022-11-21T04:19:27;10.40;70.90
68011;DHT22;54794;48.348;7.878;2022-11-21T04:21:54;10.30;71.00
68011;DHT22;54794;48.348;7.878;2022-11-21T04:24:21;10.30;71.00
68011;DHT22;54794;48.348;7.878;2022-11-21T04:26:48;10.30;71.10
68011;DHT22;54794;48.348;7.878;2022-11-21T04:29:15;10.30;71.60
68011;DHT22;54794;48.348;7.878;2022-11-21T04:31:42;10.30;71.20
68011;DHT22;54794;48.348;7.878;2022-11-21T04:34:09;10.30;71.10
68011;DHT22;54794;48.348;7.878;2022-11-21T04:36:36;10.20;71.10
68011;DHT22;54794;48.348;7.878;2022-11-21T04:39:03;10.30;71.20
68011;DHT22;54794;48.348;7.878;2022-11-21T04:41:30;10.30;71.30
68011;DHT22;54794;48.348;7.878;2022-11-21T04:43:57;10.30;71.20
68011;DHT22;54794;48.348;7.878;2022-11-21T04:46:23;10.30;71.20
68011;DHT22;54794;48.348;7.878;2022-11-21T04:48:50;10.30;71.20
68011;DHT22;54794;48.348;7.878;2022-11-21T04:51:17;10.30;71.10
68011;DHT22;54794;48.348;7.878;2022-11-21T04:53:44;10.30;71.10
68011;DHT22;54794;48.348;7.878;2022-11-21T04:56:11;10.30;71.10
68011;DHT22;54794;48.348;7.878;2022-11-21T04:58:43;10.40;71.10
68011;DHT22;54794;48.348;7.878;2022-11-21T05:01:10;10.30;71.00
68011;DHT22;54794;48.348;7.878;2022-11-21T05:03:38;10.40;71.00
68011;DHT22;54794;48.348;7.878;2022-11-21T05:06:05;10.40;71.00
68011;DHT22;54794;48.348;7.878;2022-11-21T05:08:31;10.30;70.90
68011;DHT22;54794;48.348;7.878;2022-11-21T05:10:58;10.30;70.80
68011;DHT22;54794;48.348;7.878;2022-11-21T05:13:44;10.30;70.80
68011;DHT22;54794;48.348;7.878;2022-11-21T05:16:10;10.30;70.80
68011;DHT22;54794;48.348;7.878;2022-11-21T05:18:37;10.30;70.80
68011;DHT22;54794;48.348;7.878;2022-11-21T05:21:04;10.30;71.30
68011;DHT22;54794;48.348;7.878;2022-11-21T05:23:31;10.30;70.80
68011;DHT22;54794;48.348;7.878;2022-11-21T05:25:58;10.30;70.90
68011;DHT22;54794;48.348;7.878;2022-11-21T05:28:25;10.30;70.90
68011;DHT22;54794;48.348;7.878;2022-11-21T05:30:51;10.30;70.90
68011;DHT22;54794;48.348;7.878;2022-11-21T05:33:18;10.30;70.90
68011;DHT22;54794;48.348;7.878;2022-11-21T05:35:46;10.30;70.90
68011;DHT22;54794;48.348;7.878;2022-11-21T05:38:12;10.30;71.00
68011;DHT22;54794;48.348;7.878;2022-11-21T05:40:39;10.30;70.90
68011;DHT22;54794;48.348;7.878;2022-11-21T05:43:08;10.30;70.90
68011;DHT22;54794;48.348;7.878;2022-11-21T05:45:55;10.30;70.90
68011;DHT22;54794;48.348;7.878;2022-11-21T05:48:21;10.30;70.80
68011;DHT22;54794;48.348;7.878;2022-11-21T05:50:49;10.30;70.90
68011;DHT22;54794;48.348;7.878;2022-11-21T05:53:16;10.30;70.90
68011;DHT22;54794;48.348;7.878;2022-11-21T05:55:43;10.30;70.90
68011;DHT22;54794;48.348;7.878;2022-11-21T05:58:10;10.30;71.00
68011;DHT22;54794;48.348;7.878;2022-11-21T06:00:38;10.30;70.80
68011;DHT22;54794;48.348;7.878;2022-11-21T06:03:05;10.20;70.80
68011;DHT22;54794;48.348;7.878;2022-11-21T06:08:40;10.20;71.00
68011;DHT22;54794;48.348;7.878;2022-11-21T06:11:10;10.30;71.10
68011;DHT22;54794;48.348;7.878;2022-11-21T06:13:39;10.30;71.00
68011;DHT22;54794;48.348;7.878;2022-11-21T06:16:12;10.20;71.00
68011;DHT22;54794;48.348;7.878;2022-11-21T06:18:42;10.20;71.20
68011;DHT22;54794;48.348;7.878;2022-11-21T06:21:18;10.30;71.10
68011;DHT22;54794;48.348;7.878;2022-11-21T06:23:49;10.20;71.10
68011;DHT22;54794;48.348;7.878;2022-11-21T06:26:20;10.20;71.10
68011;DHT22;54794;48.348;7.878;2022-11-21T06:28:49;10.20;71.00
68011;DHT22;54794;48.348;7.878;2022-11-21T06:31:17;10.30;71.10
68011;DHT22;54794;48.348;7.878;2022-11-21T06:33:46;10.30;71.20
68011;DHT22;54794;48.348;7.878;2022-11-21T06:36:15;10.20;71.00
68011;DHT22;54794;48.348;7.878;2022-11-21T06:38:44;10.30;71.40
68011;DHT22;54794;48.348;7.878;2022-11-21T06:41:13;10.30;70.90
68011;DHT22;54794;48.348;7.878;2022-11-21T06:43:42;10.30;71.00
68011;DHT22;54794;48.348;7.878;2022-11-21T06:46:09;10.20;71.00
68011;DHT22;54794;48.348;7.878;2022-11-21T06:48:37;10.20;71.10
68011;DHT22;54794;48.348;7.878;2022-11-21T06:51:12;10.20;71.10
68011;DHT22;54794;48.348;7.878;2022-11-21T06:53:42;10.30;71.20
68011;DHT22;54794;48.348;7.878;2022-11-21T06:56:09;10.30;71.20
68011;DHT22;54794;48.348;7.878;2022-11-21T06:58:36;10.30;71.20
68011;DHT22;54794;48.348;7.878;2022-11-21T07:01:08;10.30;71.20
68011;DHT22;54794;48.348;7.878;2022-11-21T07:03:36;10.30;71.30
68011;DHT22;54794;48.348;7.878;2022-11-21T07:06:03;10.30;71.20
68011;DHT22;54794;48.348;7.878;2022-11-21T07:08:33;10.30;71.20
68011;DHT22;54794;48.348;7.878;2022-11-21T07:11:04;10.30;71.20
68011;DHT22;54794;48.348;7.878;2022-11-21T07:13:52;10.30;71.20
68011;DHT22;54794;48.348;7.878;2022-11-21T07:16:19;10.30;71.10
68011;DHT22;54794;48.348;7.878;2022-11-21T07:18:46;10.30;71.10
68011;DHT22;54794;48.348;7.878;2022-11-21T07:21:13;10.30;71.20
68011;DHT22;54794;48.348;7.878;2022-11-21T07:23:40;10.30;71.10
68011;DHT22;54794;48.348;7.878;2022-11-21T07:26:07;10.40;71.20
68011;DHT22;54794;48.348;7.878;2022-11-21T07:28:36;10.40;71.20
68011;DHT22;54794;48.348;7.878;2022-11-21T07:31:03;10.40;71.20
68011;DHT22;54794;48.348;7.878;2022-11-21T07:33:38;10.40;71.20
68011;DHT22;54794;48.348;7.878;2022-11-21T07:36:05;10.40;71.20
68011;DHT22;54794;48.348;7.878;2022-11-21T07:38:32;10.40;71.20
68011;DHT22;54794;48.348;7.878;2022-11-21T07:40:59;10.40;71.20
68011;DHT22;54794;48.348;7.878;2022-11-21T07:43:26;10.40;71.20
68011;DHT22;54794;48.348;7.878;2022-11-21T07:45:53;10.50;71.20
68011;DHT22;54794;48.348;7.878;2022-11-21T07:48:21;10.50;71.20
68011;DHT22;54794;48.348;7.878;2022-11-21T07:50:47;10.50;71.20
68011;DHT22;54794;48.348;7.878;2022-11-21T07:53:14;10.50;71.20
68011;DHT22;54794;48.348;7.878;2022-11-21T07:55:41;10.50;71.20
68011;DHT22;54794;48.348;7.878;2022-11-21T07:58:10;10.50;71.20
68011;DHT22;54794;48.348;7.878;2022-11-21T08:00:39;10.60;71.20
68011;DHT22;54794;48.348;7.878;2022-11-21T08:03:09;10.60;71.70
68011;DHT22;54794;48.348;7.878;2022-11-21T08:05:40;10.60;71.20
68011;DHT22;54794;48.348;7.878;2022-11-21T08:08:12;10.50;71.20
68011;DHT22;54794;48.348;7.878;2022-11-21T08:10:44;10.60;71.20
68011;DHT22;54794;48.348;7.878;2022-11-21T08:13:13;10.60;71.20
68011;DHT22;54794;48.348;7.878;2022-11-21T08:15:40;10.60;71.20
68011;DHT22;54794;48.348;7.878;2022-11-21T08:18:14;10.70;71.20
68011;DHT22;54794;48.348;7.878;2022-11-21T08:20:44;10.70;71.30
68011;DHT22;54794;48.348;7.878;2022-11-21T08:23:12;10.70;71.30
68011;DHT22;54794;48.348;7.878;2022-11-21T08:25:40;10.70;71.40
68011;DHT22;54794;48.348;7.878;2022-11-21T08:28:09;10.70;71.10
68011;DHT22;54794;48.348;7.878;2022-11-21T08:30:38;10.80;71.30
68011;DHT22;54794;48.348;7.878;2022-11-21T08:33:06;10.80;71.30
68011;DHT22;54794;48.348;7.878;2022-11-21T08:35:35;10.80;71.30
68011;DHT22;54794;48.348;7.878;2022-11-21T08:38:05;10.80;71.40
68011;DHT22;54794;48.348;7.878;2022-11-21T08:40:34;10.90;71.40
68011;DHT22;54794;48.348;7.878;2022-11-21T08:43:06;10.90;71.40
68011;DHT22;54794;48.348;7.878;2022-11-21T08:45:35;10.90;71.50
68011;DHT22;54794;48.348;7.878;2022-11-21T08:48:07;10.90;71.50
68011;DHT22;54794;48.348;7.878;2022-11-21T08:50:36;11.00;71.50
68011;DHT22;54794;48.348;7.878;2022-11-21T08:53:03;11.00;71.50
68011;DHT22;54794;48.348;7.878;2022-11-21T08:55:30;11.00;71.40
68011;DHT22;54794;48.348;7.878;2022-11-21T08:57:57;11.00;71.30
68011;DHT22;54794;48.348;7.878;2022-11-21T09:00:24;11.10;71.40
68011;DHT22;54794;48.348;7.878;2022-11-21T09:02:51;11.10;71.30
68011;DHT22;54794;48.348;7.878;2022-11-21T09:05:18;11.10;71.30
68011;DHT22;54794;48.348;7.878;2022-11-21T09:07:46;11.10;71.30
68011;DHT22;54794;48.348;7.878;2022-11-21T09:10:14;11.10;71.30
68011;DHT22;54794;48.348;7.878;2022-11-21T09:12:41;11.20;71.40
68011;DHT22;54794;48.348;7.878;2022-11-21T09:15:09;11.20;71.50
68011;DHT22;54794;48.348;7.878;2022-11-21T09:17:59;11.30;71.50
68011;DHT22;54794;48.348;7.878;2022-11-21T09:20:31;11.30;71.50
68011;DHT22;54794;48.348;7.878;2022-11-21T09:23:07;11.30;71.40
68011;DHT22;54794;48.348;7.878;2022-11-21T09:25:36;11.30;71.50
68011;DHT22;54794;48.348;7.878;2022-11-21T09:28:04;11.40;71.40
68011;DHT22;54794;48.348;7.878;2022-11-21T09:30:33;11.40;71.40
68011;DHT22;54794;48.348;7.878;2022-11-21T09:33:01;11.40;71.30
68011;DHT22;54794;48.348;7.878;2022-11-21T09:35:32;11.50;71.50
68011;DHT22;54794;48.348;7.878;2022-11-21T09:37:59;11.50;71.20
68011;DHT22;54794;48.348;7.878;2022-11-21T09:40:29;11.60;71.30
68011;DHT22;54794;48.348;7.878;2022-11-21T09:46:02;11.60;71.30
68011;DHT22;54794;48.348;7.878;2022-11-21T09:48:53;11.60;71.40
68011;DHT22;54794;48.348;7.878;2022-11-21T09:51:26;11.70;71.40
68011;DHT22;54794;48.348;7.878;2022-11-21T09:54:16;11.70;71.10
68011;DHT22;54794;48.348;7.878;2022-11-21T09:56:46;11.70;71.30
68011;DHT22;54794;48.348;7.878;2022-11-21T10:01:55;11.80;71.30
68011;DHT22;54794;48.348;7.878;2022-11-21T10:04:23;11.80;71.30
68011;DHT22;54794;48.348;7.878;2022-11-21T10:07:06;11.90;71.40
68011;DHT22;54794;48.348;7.878;2022-11-21T10:15:56;12.00;71.00
68011;DHT22;54794;48.348;7.878;2022-11-21T10:19:02;12.00;71.00
68011;DHT22;54794;48.348;7.878;2022-11-21T10:27:11;12.10;71.20
68011;DHT22;54794;48.348;7.878;2022-11-21T10:29:49;12.20;71.60
68011;DHT22;54794;48.348;7.878;2022-11-21T10:35:34;12.30;70.90
68011;DHT22;54794;48.348;7.878;2022-11-21T10:38:24;12.30;70.90
68011;DHT22;54794;48.348;7.878;2022-11-21T10:41:14;12.40;70.80
68011;DHT22;54794;48.348;7.878;2022-11-21T10:47:00;12.50;70.90
68011;DHT22;54794;48.348;7.878;2022-11-21T10:49:30;12.50;70.90
68011;DHT22;54794;48.348;7.878;2022-11-21T10:52:20;12.50;70.80
68011;DHT22;54794;48.348;7.878;2022-11-21T11:00:21;12.60;70.40
68011;DHT22;54794;48.348;7.878;2022-11-21T11:05:33;12.60;70.30
68011;DHT22;54794;48.348;7.878;2022-11-21T11:08:07;12.70;70.40
68011;DHT22;54794;48.348;7.878;2022-11-21T11:10:45;12.70;70.60
68011;DHT22;54794;48.348;7.878;2022-11-21T11:13:28;12.70;70.50
68011;DHT22;54794;48.348;7.878;2022-11-21T11:16:18;12.80;70.60
68011;DHT22;54794;48.348;7.878;2022-11-21T11:19:03;12.90;70.60
68011;DHT22;54794;48.348;7.878;2022-11-21T11:29:25;13.00;70.20
68011;DHT22;54794;48.348;7.878;2022-11-21T11:34:58;13.00;70.20
68011;DHT22;54794;48.348;7.878;2022-11-21T11:37:35;13.00;70.10
68011;DHT22;54794;48.348;7.878;2022-11-21T11:43:11;13.10;70.00
68011;DHT22;54794;48.348;7.878;2022-11-21T11:49:35;13.20;69.90
68011;DHT22;54794;48.348;7.878;2022-11-21T11:52:30;13.20;69.90
68011;DHT22;54794;48.348;7.878;2022-11-21T11:55:05;13.20;69.90
68011;DHT22;54794;48.348;7.878;2022-11-21T11:57:42;13.20;69.80
68011;DHT22;54794;48.348;7.878;2022-11-21T12:00:20;13.20;69.70
68011;DHT22;54794;48.348;7.878;2022-11-21T12:03:04;13.20;69.50
68011;DHT22;54794;48.348;7.878;2022-11-21T12:08:53;13.20;69.50
68011;DHT22;54794;48.348;7.878;2022-11-21T12:23:56;13.30;69.20
68011;DHT22;54794;48.348;7.878;2022-11-21T12:39:28;13.30;69.30
68011;DHT22;54794;48.348;7.878;2022-11-21T12:42:25;13.40;69.60
68011;DHT22;54794;48.348;7.878;2022-11-21T12:45:25;13.40;69.20
68011;DHT22;54794;48.348;7.878;2022-11-21T12:48:04;13.50;69.40
68011;DHT22;54794;48.348;7.878;2022-11-21T12:51:22;13.50;69.00
68011;DHT22;54794;48.348;7.878;2022-11-21T12:57:16;13.60;68.60
68011;DHT22;54794;48.348;7.878;2022-11-21T13:05:15;13.60;68.70
68011;DHT22;54794;48.348;7.878;2022-11-21T13:07:58;13.70;69.00
68011;DHT22;54794;48.348;7.878;2022-11-21T13:10:30;13.70;68.90
68011;DHT22;54794;48.348;7.878;2022-11-21T13:13:18;13.70;68.80
68011;DHT22;54794;48.348;7.878;2022-11-21T13:15:57;13.70;68.40
68011;DHT22;54794;48.348;7.878;2022-11-21T13:18:35;13.70;68.40
68011;DHT22;54794;48.348;7.878;2022-11-21T13:21:40;13.70;68.40
68011;DHT22;54794;48.348;7.878;2022-11-21T13:27:25;13.70;67.90
68011;DHT22;54794;48.348;7.878;2022-11-21T13:30:19;13.70;68.10
68011;DHT22;54794;48.348;7.878;2022-11-21T13:32:53;13.70;67.90
68011;DHT22;54794;48.348;7.878;2022-11-21T13:38:06;13.70;68.40
68011;DHT22;54794;48.348;7.878;2022-11-21T13:40:39;13.70;67.90
68011;DHT22;54794;48.348;7.878;2022-11-21T13:43:32;13.70;68.20
68011;DHT22;54794;48.348;7.878;2022-11-21T13:46:01;13.70;68.40
68011;DHT22;54794;48.348;7.878;2022-11-21T13:59:44;13.70;68.10
68011;DHT22;54794;48.348;7.878;2022-11-21T14:08:26;13.60;68.00
68011;DHT22;54794;48.348;7.878;2022-11-21T14:10:55;13.60;68.10
68011;DHT22;54794;48.348;7.878;2022-11-21T14:13:30;13.60;68.10
68011;DHT22;54794;48.348;7.878;2022-11-21T14:19:02;13.50;67.90
68011;DHT22;54794;48.348;7.878;2022-11-21T14:21:31;13.50;68.00
68011;DHT22;54794;48.348;7.878;2022-11-21T14:24:04;13.50;68.00
68011;DHT22;54794;48.348;7.878;2022-11-21T14:26:44;13.50;67.80
68011;DHT22;54794;48.348;7.878;2022-11-21T14:29:38;13.50;67.70
68011;DHT22;54794;48.348;7.878;2022-11-21T14:32:13;13.50;67.40
68011;DHT22;54794;48.348;7.878;2022-11-21T14:34:40;13.40;67.60
68011;DHT22;54794;48.348;7.878;2022-11-21T14:37:07;13.40;67.60
68011;DHT22;54794;48.348;7.878;2022-11-21T14:39:39;13.40;67.50
68011;DHT22;54794;48.348;7.878;2022-11-21T14:42:13;13.30;67.30
68011;DHT22;54794;48.348;7.878;2022-11-21T14:44:42;13.30;67.60
68011;DHT22;54794;48.348;7.878;2022-11-21T14:47:13;13.20;67.50
68011;DHT22;54794;48.348;7.878;2022-11-21T14:49:50;13.20;67.50
68011;DHT22;54794;48.348;7.878;2022-11-21T14:52:29;13.20;67.60
68011;DHT22;54794;48.348;7.878;2022-11-21T14:55:03;13.20;67.40
68011;DHT22;54794;48.348;7.878;2022-11-21T14:57:52;13.10;67.60
68011;DHT22;54794;48.348;7.878;2022-11-21T15:00:23;13.10;67.50
68011;DHT22;54794;48.348;7.878;2022-11-21T15:03:29;13.10;67.50
68011;DHT22;54794;48.348;7.878;2022-11-21T15:06:02;13.00;67.20
68011;DHT22;54794;48.348;7.878;2022-11-21T15:08:35;13.00;67.50
68011;DHT22;54794;48.348;7.878;2022-11-21T15:14:37;13.00;67.40
68011;DHT22;54794;48.348;7.878;2022-11-21T15:17:16;12.90;67.60
68011;DHT22;54794;48.348;7.878;2022-11-21T15:19:57;12.90;67.50
68011;DHT22;54794;48.348;7.878;2022-11-21T15:22:48;12.80;67.60
68011;DHT22;54794;48.348;7.878;2022-11-21T15:25:22;12.80;67.60
68011;DHT22;54794;48.348;7.878;2022-11-21T15:28:04;12.80;67.70
68011;DHT22;54794;48.348;7.878;2022-11-21T15:30:36;12.70;67.70
68011;DHT22;54794;48.348;7.878;2022-11-21T15:35:52;12.70;67.80
68011;DHT22;54794;48.348;7.878;2022-11-21T15:46:19;12.50;67.50
68011;DHT22;54794;48.348;7.878;2022-11-21T15:48:51;12.50;67.40
68011;DHT22;54794;48.348;7.878;2022-11-21T15:51:22;12.40;67.60
68011;DHT22;54794;48.348;7.878;2022-11-21T15:54:19;12.40;67.50
68011;DHT22;54794;48.348;7.878;2022-11-21T15:56:47;12.40;67.50
68011;DHT22;54794;48.348;7.878;2022-11-21T15:59:15;12.30;67.60
68011;DHT22;54794;48.348;7.878;2022-11-21T16:01:42;12.30;67.70
68011;DHT22;54794;48.348;7.878;2022-11-21T16:04:10;12.20;67.60
68011;DHT22;54794;48.348;7.878;2022-11-21T16:06:38;12.20;67.60
68011;DHT22;54794;48.348;7.878;2022-11-21T16:09:05;12.20;67.70
68011;DHT22;54794;48.348;7.878;2022-11-21T16:11:34;12.20;67.80
68011;DHT22;54794;48.348;7.878;2022-11-21T16:14:14;12.10;67.70
68011;DHT22;54794;48.348;7.878;2022-11-21T16:16:43;12.10;67.70
68011;DHT22;54794;48.348;7.878;2022-11-21T16:19:13;12.10;67.80
68011;DHT22;54794;48.348;7.878;2022-11-21T16:21:41;12.10;67.80
68011;DHT22;54794;48.348;7.878;2022-11-21T16:24:08;12.10;67.80
68011;DHT22;54794;48.348;7.878;2022-11-21T16:26:35;12.00;67.70
68011;DHT22;54794;48.348;7.878;2022-11-21T16:29:02;12.00;67.80
68011;DHT22;54794;48.348;7.878;2022-11-21T16:31:41;11.90;67.70
68011;DHT22;54794;48.348;7.878;2022-11-21T16:34:11;11.90;67.70
68011;DHT22;54794;48.348;7.878;2022-11-21T16:36:37;11.90;67.80
68011;DHT22;54794;48.348;7.878;2022-11-21T16:39:04;11.90;67.80
68011;DHT22;54794;48.348;7.878;2022-11-21T16:41:39;11.90;67.80
68011;DHT22;54794;48.348;7.878;2022-11-21T16:44:10;11.80;67.80
68011;DHT22;54794;48.348;7.878;2022-11-21T16:46:44;11.80;67.70
68011;DHT22;54794;48.348;7.878;2022-11-21T16:49:14;11.80;67.60
68011;DHT22;54794;48.348;7.878;2022-11-21T16:51:40;11.80;67.80
68011;DHT22;54794;48.348;7.878;2022-11-21T16:54:07;11.80;67.80
68011;DHT22;54794;48.348;7.878;2022-11-21T16:56:35;11.70;67.90
68011;DHT22;54794;48.348;7.878;2022-11-21T16:59:02;11.70;67.80
68011;DHT22;54794;48.348;7.878;2022-11-21T17:01:31;11.70;67.90
68011;DHT22;54794;48.348;7.878;2022-11-21T17:04:24;11.70;67.90
68011;DHT22;54794;48.348;7.878;2022-11-21T17:06:51;11.70;67.80
68011;DHT22;54794;48.348;7.878;2022-11-21T17:09:18;11.70;67.90
68011;DHT22;54794;48.348;7.878;2022-11-21T17:11:45;11.70;68.00
68011;DHT22;54794;48.348;7.878;2022-11-21T17:14:13;11.60;67.90
68011;DHT22;54794;48.348;7.878;2022-11-21T17:16:40;11.60;67.90
68011;DHT22;54794;48.348;7.878;2022-11-21T17:19:10;11.60;67.80
68011;DHT22;54794;48.348;7.878;2022-11-21T17:21:37;11.60;67.80
68011;DHT22;54794;48.348;7.878;2022-11-21T17:24:04;11.60;67.90
68011;DHT22;54794;48.348;7.878;2022-11-21T17:26:34;11.50;67.90
68011;DHT22;54794;48.348;7.878;2022-11-21T17:29:03;11.50;68.00
68011;DHT22;54794;48.348;7.878;2022-11-21T17:31:31;11.50;68.00
68011;DHT22;54794;48.348;7.878;2022-11-21T17:33:58;11.50;68.00
68011;DHT22;54794;48.348;7.878;2022-11-21T17:36:28;11.50;68.00
68011;DHT22;54794;48.348;7.878;2022-11-21T17:38:56;11.60;68.10
68011;DHT22;54794;48.348;7.878;2022-11-21T17:41:23;11.40;68.00
68011;DHT22;54794;48.348;7.878;2022-11-21T17:43:55;11.40;68.00
68011;DHT22;54794;48.348;7.878;2022-11-21T17:46:23;11.40;68.10
68011;DHT22;54794;48.348;7.878;2022-11-21T17:48:52;11.40;68.20
68011;DHT22;54794;48.348;7.878;2022-11-21T17:51:29;11.40;68.20
68011;DHT22;54794;48.348;7.878;2022-11-21T17:54:00;11.40;68.20
68011;DHT22;54794;48.348;7.878;2022-11-21T17:56:29;11.40;68.20
68011;DHT22;54794;48.348;7.878;2022-11-21T17:58:57;11.40;68.10
68011;DHT22;54794;48.348;7.878;2022-11-21T18:01:25;11.40;68.10
68011;DHT22;54794;48.348;7.878;2022-11-21T18:03:53;11.40;68.20
68011;DHT22;54794;48.348;7.878;2022-11-21T18:06:23;11.40;68.30
68011;DHT22;54794;48.348;7.878;2022-11-21T18:08:52;11.40;68.30